Time;durP1;ratioP1;P1;durP2;ratioP2;P2;SDS_P1;SDS_P2;PMS_P1;PMS_P2;Temp;Humidity;BMP_temperature;BMP_pressure;BME280_temperature;BME280_humidity;BME280_pressure;Samples;Min_cycle;Max_cycle;Signal;HPM_P1;HPM_P2
2021/10/07 00:00:14;;;;;;;;;0.00;0.00;;;;;;;;2779070;51;8772;-59
2021/10/07 00:02:40;;;;;;;;;0.00;0.00;;;;;;;;2779044;51;9413;-59
2021/10/07 00:05:06;;;;;;;;;0.00;0.00;;;;;;;;2779715;51;8792;-59
2021/10/07 00:07:32;;;;;;;;;1.25;0.75;;;;;;;;2779038;51;8787;-60
2021/10/07 00:09:57;;;;;;;;;0.00;0.00;;;;;;;;2779064;51;8772;-59
2021/10/07 00:12:23;;;;;;;;;0.00;0.00;;;;;;;;2778958;51;8787;-59
2021/10/07 00:14:49;;;;;;;;;0.00;0.00;;;;;;;;2778992;51;8782;-60
2021/10/07 00:17:14;;;;;;;;;0.00;0.00;;;;;;;;2779035;51;8846;-60
2021/10/07 00:19:40;;;;;;;;;1.00;1.00;;;;;;;;2778931;51;8772;-59
2021/10/07 00:22:05;;;;;;;;;0.00;0.00;;;;;;;;2778909;51;8799;-59
2021/10/07 00:24:31;;;;;;;;;1.00;1.00;;;;;;;;2779424;51;8776;-59
2021/10/07 00:26:57;;;;;;;;;0.00;0.00;;;;;;;;2779076;51;8795;-59
2021/10/07 00:32:08;;;;;;;;;1.00;1.00;;;;;;;;2779103;51;8748;-59
2021/10/07 00:37:07;;;;;;;;;0.00;0.00;;;;;;;;2779869;51;8764;-60
2021/10/07 00:39:33;;;;;;;;;1.00;0.00;;;;;;;;2780003;51;8783;-59
2021/10/07 00:41:59;;;;;;;;;0.00;0.00;;;;;;;;2779821;51;8784;-59
2021/10/07 00:44:28;;;;;;;;;0.33;0.33;;;;;;;;2779912;51;8808;-59
2021/10/07 00:46:58;;;;;;;;;0.00;0.00;;;;;;;;2779805;51;8776;-59
2021/10/07 00:49:23;;;;;;;;;0.75;0.75;;;;;;;;2779919;51;8772;-61
2021/10/07 00:51:50;;;;;;;;;0.67;0.67;;;;;;;;2780393;51;8787;-58
2021/10/07 00:54:17;;;;;;;;;1.00;0.00;;;;;;;;2779931;51;8773;-60
2021/10/07 00:56:43;;;;;;;;;1.00;1.00;;;;;;;;2779919;51;8764;-59
2021/10/07 00:59:09;;;;;;;;;1.00;1.00;;;;;;;;2780181;51;8783;-59
2021/10/07 01:01:35;;;;;;;;;0.25;0.00;;;;;;;;2779867;51;8756;-58
2021/10/07 01:04:00;;;;;;;;;0.67;0.67;;;;;;;;2779825;51;8764;-59
2021/10/07 01:06:26;;;;;;;;;0.33;0.33;;;;;;;;2780160;51;8790;-61
2021/10/07 01:08:52;;;;;;;;;0.00;0.00;;;;;;;;2779712;51;8865;-59
2021/10/07 01:11:17;;;;;;;;;1.00;1.00;;;;;;;;2779783;51;8803;-59
2021/10/07 01:13:43;;;;;;;;;0.33;0.00;;;;;;;;2779704;51;9425;-58
2021/10/07 01:16:09;;;;;;;;;0.00;0.00;;;;;;;;2779917;51;9426;-58
2021/10/07 01:18:35;;;;;;;;;1.00;0.00;;;;;;;;2779838;51;9342;-59
2021/10/07 01:21:01;;;;;;;;;0.00;0.00;;;;;;;;2779798;51;8764;-60
2021/10/07 01:23:27;;;;;;;;;0.00;0.00;;;;;;;;2779598;51;8780;-59
2021/10/07 01:25:52;;;;;;;;;2.00;1.00;;;;;;;;2779884;51;8849;-57
2021/10/07 01:28:18;;;;;;;;;0.00;0.00;;;;;;;;2779590;51;8895;-58
2021/10/07 01:30:44;;;;;;;;;0.00;0.00;;;;;;;;2779647;51;8775;-59
2021/10/07 01:33:09;;;;;;;;;0.00;0.00;;;;;;;;2779651;51;8787;-59
2021/10/07 01:35:35;;;;;;;;;0.00;0.00;;;;;;;;2779657;51;8768;-59
2021/10/07 01:38:01;;;;;;;;;0.00;0.00;;;;;;;;2779793;51;8772;-58
2021/10/07 01:40:27;;;;;;;;;0.00;0.00;;;;;;;;2779636;51;8788;-58
2021/10/07 01:42:53;;;;;;;;;1.00;1.00;;;;;;;;2779581;51;8799;-58
2021/10/07 01:45:18;;;;;;;;;0.00;0.00;;;;;;;;2779429;51;8772;-59
2021/10/07 01:47:44;;;;;;;;;0.00;0.00;;;;;;;;2779622;51;8760;-58
2021/10/07 01:50:11;;;;;;;;;1.00;1.00;;;;;;;;2779517;51;8875;-59
2021/10/07 01:52:37;;;;;;;;;0.00;0.00;;;;;;;;2779875;51;8780;-58
2021/10/07 01:55:03;;;;;;;;;0.00;0.00;;;;;;;;2779701;51;8768;-58
2021/10/07 01:57:29;;;;;;;;;0.00;0.00;;;;;;;;2779618;51;8787;-60
2021/10/07 01:59:54;;;;;;;;;1.00;1.00;;;;;;;;2779571;51;8776;-59
2021/10/07 02:02:20;;;;;;;;;0.00;0.00;;;;;;;;2779577;51;8772;-60
2021/10/07 02:04:46;;;;;;;;;0.00;0.00;;;;;;;;2779504;51;9469;-60
2021/10/07 02:07:11;;;;;;;;;0.67;0.00;;;;;;;;2779981;51;8765;-58
2021/10/07 02:09:37;;;;;;;;;0.00;0.00;;;;;;;;2779808;51;8775;-60
2021/10/07 02:12:02;;;;;;;;;0.00;0.00;;;;;;;;2779654;51;8894;-59
2021/10/07 02:14:28;;;;;;;;;0.00;0.00;;;;;;;;2779500;51;8812;-60
2021/10/07 02:16:54;;;;;;;;;0.00;0.00;;;;;;;;2779620;51;8895;-60
2021/10/07 02:19:19;;;;;;;;;0.33;0.33;;;;;;;;2779533;51;8786;-60
2021/10/07 02:21:45;;;;;;;;;0.67;0.67;;;;;;;;2779897;51;8764;-60
2021/10/07 02:24:11;;;;;;;;;0.00;0.00;;;;;;;;2779618;51;8756;-59
2021/10/07 02:26:37;;;;;;;;;1.00;1.00;;;;;;;;2779412;51;8776;-59
2021/10/07 02:29:03;;;;;;;;;0.67;0.67;;;;;;;;2779475;51;8783;-58
2021/10/07 02:31:29;;;;;;;;;1.00;1.00;;;;;;;;2779479;51;11492;-58
2021/10/07 02:33:55;;;;;;;;;0.00;0.00;;;;;;;;2779350;51;8772;-60
2021/10/07 02:36:21;;;;;;;;;0.25;0.25;;;;;;;;2779656;51;8760;-59
2021/10/07 02:38:46;;;;;;;;;0.00;0.00;;;;;;;;2779457;51;8768;-59
2021/10/07 02:41:12;;;;;;;;;0.00;0.00;;;;;;;;2779351;51;8776;-59
2021/10/07 02:43:38;;;;;;;;;1.00;0.00;;;;;;;;2779523;51;8885;-59
2021/10/07 02:46:03;;;;;;;;;0.67;0.67;;;;;;;;2779536;51;8784;-58
2021/10/07 02:48:29;;;;;;;;;1.67;1.67;;;;;;;;2779520;51;8849;-59
2021/10/07 02:50:55;;;;;;;;;1.00;1.00;;;;;;;;2779361;51;8861;-58
2021/10/07 02:53:21;;;;;;;;;0.00;0.00;;;;;;;;2779568;51;8756;-58
2021/10/07 02:55:46;;;;;;;;;1.00;1.00;;;;;;;;2779391;51;8760;-59
2021/10/07 02:58:12;;;;;;;;;2.00;0.67;;;;;;;;2778915;51;8870;-59
2021/10/07 03:00:38;;;;;;;;;0.00;0.00;;;;;;;;2779162;51;8776;-60
2021/10/07 03:03:03;;;;;;;;;1.33;1.33;;;;;;;;2779270;51;8788;-60
2021/10/07 03:05:29;;;;;;;;;0.00;0.00;;;;;;;;2779247;51;8764;-60
2021/10/07 03:07:55;;;;;;;;;0.67;0.00;;;;;;;;2779399;51;8772;-60
2021/10/07 03:10:20;;;;;;;;;0.00;0.00;;;;;;;;2779158;51;9456;-60
2021/10/07 03:12:46;;;;;;;;;1.33;1.33;;;;;;;;2779375;51;8772;-59
2021/10/07 03:15:12;;;;;;;;;2.25;1.00;;;;;;;;2779424;51;8752;-59
2021/10/07 03:17:37;;;;;;;;;0.67;0.67;;;;;;;;2779163;51;8771;-59
2021/10/07 03:20:07;;;;;;;;;2.67;2.67;;;;;;;;2779135;51;9369;-60
2021/10/07 03:22:34;;;;;;;;;0.75;0.75;;;;;;;;2779368;51;8788;-61
2021/10/07 03:24:59;;;;;;;;;3.00;1.67;;;;;;;;2779355;51;8775;-59
2021/10/07 03:27:25;;;;;;;;;0.00;0.00;;;;;;;;2779511;51;8795;-59
2021/10/07 03:29:51;;;;;;;;;1.00;1.00;;;;;;;;2779125;51;8772;-59
2021/10/07 03:32:16;;;;;;;;;1.00;1.00;;;;;;;;2779229;51;8869;-59
2021/10/07 03:34:42;;;;;;;;;2.67;1.00;;;;;;;;2779137;51;8768;-60
2021/10/07 03:37:08;;;;;;;;;0.50;0.50;;;;;;;;2779570;51;8764;-62
2021/10/07 03:39:34;;;;;;;;;2.00;1.00;;;;;;;;2779173;51;8790;-59
2021/10/07 03:41:59;;;;;;;;;1.00;1.00;;;;;;;;2779193;51;8813;-59
2021/10/07 03:44:25;;;;;;;;;0.33;0.33;;;;;;;;2779509;51;8772;-59
2021/10/07 03:46:51;;;;;;;;;1.75;1.75;;;;;;;;2779374;51;8788;-59
2021/10/07 03:49:16;;;;;;;;;3.00;2.00;;;;;;;;2783463;51;8784;-59
2021/10/07 03:51:42;;;;;;;;;0.33;0.33;;;;;;;;2779227;51;8788;-61
2021/10/07 03:54:08;;;;;;;;;0.33;0.33;;;;;;;;2778969;51;8978;-59
2021/10/07 03:56:34;;;;;;;;;0.67;0.67;;;;;;;;2778834;51;9473;-60
2021/10/07 03:58:59;;;;;;;;;1.00;1.00;;;;;;;;2779542;51;8780;-59
2021/10/07 04:01:25;;;;;;;;;0.00;0.00;;;;;;;;2778927;51;8853;-58
2021/10/07 04:03:50;;;;;;;;;0.33;0.33;;;;;;;;2779362;51;9447;-59
2021/10/07 04:06:16;;;;;;;;;0.00;0.00;;;;;;;;2779128;51;8784;-63
2021/10/07 04:08:42;;;;;;;;;0.67;0.67;;;;;;;;2779021;51;8776;-59
2021/10/07 04:11:07;;;;;;;;;1.00;1.00;;;;;;;;2779401;51;8874;-61
2021/10/07 04:13:33;;;;;;;;;0.00;0.00;;;;;;;;2779269;51;8752;-61
2021/10/07 04:15:59;;;;;;;;;1.67;1.00;;;;;;;;2779425;51;8885;-58
2021/10/07 04:18:24;;;;;;;;;1.00;1.00;;;;;;;;2779070;51;8756;-60
2021/10/07 04:20:50;;;;;;;;;1.00;1.00;;;;;;;;2778887;51;9496;-60
2021/10/07 04:23:16;;;;;;;;;0.67;0.33;;;;;;;;2778892;51;8780;-60
2021/10/07 04:25:42;;;;;;;;;2.00;1.50;;;;;;;;2778902;51;8789;-61
2021/10/07 04:28:08;;;;;;;;;1.00;1.00;;;;;;;;2778871;51;9385;-60
2021/10/07 04:30:35;;;;;;;;;0.00;0.00;;;;;;;;2778829;51;8776;-61
2021/10/07 04:33:10;;;;;;;;;1.00;1.00;;;;;;;;2778835;51;8768;-59
2021/10/07 04:35:36;;;;;;;;;0.75;0.75;;;;;;;;2778949;51;8744;-60
2021/10/07 04:38:03;;;;;;;;;2.00;1.25;;;;;;;;2778822;51;9462;-59
2021/10/07 04:40:28;;;;;;;;;1.00;1.00;;;;;;;;2778847;51;8760;-59
2021/10/07 04:42:54;;;;;;;;;1.00;1.00;;;;;;;;2778886;51;9468;-59
2021/10/07 04:45:20;;;;;;;;;1.33;1.00;;;;;;;;2778975;51;8764;-61
2021/10/07 04:47:46;;;;;;;;;3.00;2.00;;;;;;;;2778880;51;8768;-61
2021/10/07 04:50:11;;;;;;;;;2.00;1.00;;;;;;;;2778499;51;8772;-60
2021/10/07 04:52:37;;;;;;;;;2.00;1.00;;;;;;;;2778674;51;11422;-59
2021/10/07 04:55:03;;;;;;;;;1.00;1.00;;;;;;;;2778927;51;8764;-59
2021/10/07 04:57:29;;;;;;;;;2.67;1.00;;;;;;;;2778818;51;8760;-61
2021/10/07 04:59:55;;;;;;;;;1.25;1.25;;;;;;;;2778685;51;8859;-60
2021/10/07 05:02:20;;;;;;;;;1.33;1.00;;;;;;;;2778705;51;8792;-61
2021/10/07 05:04:46;;;;;;;;;1.00;1.00;;;;;;;;2778739;51;8756;-61
2021/10/07 05:07:11;;;;;;;;;3.33;2.00;;;;;;;;2778213;51;8772;-61
2021/10/07 05:09:37;;;;;;;;;1.67;1.67;;;;;;;;2778875;51;8792;-60
2021/10/07 05:12:03;;;;;;;;;1.00;1.00;;;;;;;;2778639;51;8903;-61
2021/10/07 05:14:29;;;;;;;;;1.50;1.25;;;;;;;;2778567;51;8764;-61
2021/10/07 05:16:54;;;;;;;;;1.33;1.00;;;;;;;;2778672;51;8868;-60
2021/10/07 05:19:20;;;;;;;;;1.67;1.67;;;;;;;;2778603;51;8780;-61
2021/10/07 05:21:45;;;;;;;;;1.33;1.00;;;;;;;;2779486;51;8841;-62
2021/10/07 05:24:11;;;;;;;;;2.00;1.00;;;;;;;;2779564;51;8764;-60
2021/10/07 05:26:37;;;;;;;;;1.00;1.00;;;;;;;;2779621;51;8767;-61
2021/10/07 05:29:02;;;;;;;;;2.00;1.00;;;;;;;;2779639;51;8778;-61
2021/10/07 05:31:28;;;;;;;;;1.67;1.67;;;;;;;;2780051;51;8756;-60
2021/10/07 05:33:53;;;;;;;;;1.00;1.00;;;;;;;;2779924;51;9421;-63
2021/10/07 05:36:19;;;;;;;;;6.00;4.00;;;;;;;;2779492;51;8862;-61
2021/10/07 05:38:45;;;;;;;;;0.67;0.00;;;;;;;;2779975;51;8771;-61
2021/10/07 05:41:10;;;;;;;;;1.00;1.00;;;;;;;;2780031;51;8762;-62
2021/10/07 05:43:36;;;;;;;;;3.00;2.00;;;;;;;;2779623;51;8792;-61
2021/10/07 05:46:01;;;;;;;;;3.33;2.00;;;;;;;;2779580;51;8771;-61
2021/10/07 05:48:27;;;;;;;;;2.00;2.00;;;;;;;;2779495;51;8796;-61
2021/10/07 05:50:53;;;;;;;;;1.00;0.00;;;;;;;;2779685;51;8776;-61
2021/10/07 05:53:19;;;;;;;;;1.00;1.00;;;;;;;;2780062;51;8761;-60
2021/10/07 05:55:44;;;;;;;;;2.33;2.33;;;;;;;;2779620;51;8765;-61
2021/10/07 05:58:10;;;;;;;;;1.67;1.00;;;;;;;;2780058;51;8771;-61
2021/10/07 06:00:36;;;;;;;;;2.00;1.00;;;;;;;;2779530;51;8768;-62
2021/10/07 06:03:01;;;;;;;;;2.33;1.00;;;;;;;;2779669;51;8784;-61
2021/10/07 06:05:27;;;;;;;;;1.00;1.00;;;;;;;;2779579;51;8780;-63
2021/10/07 06:07:53;;;;;;;;;0.00;0.00;;;;;;;;2779543;51;8780;-60
2021/10/07 06:10:18;;;;;;;;;3.00;2.00;;;;;;;;2779779;51;9537;-61
2021/10/07 06:12:44;;;;;;;;;2.00;2.00;;;;;;;;2779675;51;8776;-61
2021/10/07 06:15:11;;;;;;;;;1.00;1.00;;;;;;;;2779620;51;8920;-60
2021/10/07 06:17:36;;;;;;;;;1.00;1.00;;;;;;;;2779836;51;8769;-60
2021/10/07 06:20:06;;;;;;;;;2.00;2.00;;;;;;;;2779748;51;9445;-60
2021/10/07 06:22:32;;;;;;;;;1.00;1.00;;;;;;;;2779473;51;8804;-60
2021/10/07 06:24:58;;;;;;;;;2.33;2.33;;;;;;;;2779398;51;8764;-61
2021/10/07 06:27:24;;;;;;;;;1.67;1.67;;;;;;;;2779248;51;8863;-58
2021/10/07 06:29:50;;;;;;;;;1.00;1.00;;;;;;;;2779434;51;8886;-57
2021/10/07 06:32:16;;;;;;;;;2.00;1.00;;;;;;;;2779279;51;8910;-59
2021/10/07 06:34:42;;;;;;;;;0.00;0.00;;;;;;;;2779353;51;8808;-58
2021/10/07 06:37:07;;;;;;;;;0.00;0.00;;;;;;;;2779733;51;8924;-58
2021/10/07 06:39:33;;;;;;;;;0.00;0.00;;;;;;;;2779360;51;8918;-57
2021/10/07 06:41:59;;;;;;;;;2.00;2.00;;;;;;;;2779349;51;8784;-57
2021/10/07 06:44:25;;;;;;;;;1.00;1.00;;;;;;;;2779241;51;8797;-58
2021/10/07 06:46:50;;;;;;;;;0.50;0.50;;;;;;;;2779440;51;11414;-57
2021/10/07 06:49:16;;;;;;;;;1.50;1.50;;;;;;;;2779391;51;8764;-58
2021/10/07 06:51:41;;;;;;;;;1.00;1.00;;;;;;;;2779870;51;8786;-59
2021/10/07 06:54:07;;;;;;;;;1.50;1.50;;;;;;;;2779487;51;8776;-58
2021/10/07 06:56:33;;;;;;;;;2.00;2.00;;;;;;;;2779228;51;9543;-58
2021/10/07 06:58:58;;;;;;;;;1.00;1.00;;;;;;;;2779286;51;8771;-59
2021/10/07 07:01:28;;;;;;;;;1.00;1.00;;;;;;;;2779345;51;8854;-57
2021/10/07 07:03:54;;;;;;;;;0.20;0.20;;;;;;;;2779367;51;8784;-59
2021/10/07 07:06:20;;;;;;;;;0.80;0.80;;;;;;;;2779358;51;8768;-62
2021/10/07 07:08:46;;;;;;;;;1.60;1.60;;;;;;;;2779501;51;8879;-60
2021/10/07 07:11:12;;;;;;;;;1.00;1.00;;;;;;;;2779382;51;8812;-62
2021/10/07 07:13:38;;;;;;;;;1.25;1.25;;;;;;;;2779352;51;8760;-59
2021/10/07 07:16:03;;;;;;;;;1.60;1.60;;;;;;;;2779212;51;9507;-59
2021/10/07 07:18:29;;;;;;;;;1.00;1.00;;;;;;;;2779399;51;8769;-58
2021/10/07 07:20:55;;;;;;;;;1.00;1.00;;;;;;;;2779177;51;8766;-61
2021/10/07 07:23:20;;;;;;;;;4.00;1.75;;;;;;;;2779183;51;8910;-58
2021/10/07 07:25:46;;;;;;;;;1.75;1.75;;;;;;;;2778942;51;8752;-58
2021/10/07 07:28:12;;;;;;;;;3.00;1.00;;;;;;;;2779233;51;8776;-58
2021/10/07 07:30:38;;;;;;;;;0.00;0.00;;;;;;;;2779180;51;8780;-59
2021/10/07 07:33:03;;;;;;;;;1.00;1.00;;;;;;;;2779372;51;9603;-59
2021/10/07 07:35:31;;;;;;;;;0.50;0.25;;;;;;;;2779312;51;9472;-59
2021/10/07 07:38:04;;;;;;;;;0.00;0.00;;;;;;;;2779313;51;8764;-60
2021/10/07 07:40:30;;;;;;;;;1.20;1.20;;;;;;;;2779206;51;8772;-59
2021/10/07 07:42:56;;;;;;;;;1.80;1.80;;;;;;;;2779160;51;8824;-58
2021/10/07 07:45:22;;;;;;;;;1.00;1.00;;;;;;;;2779146;51;8768;-59
2021/10/07 07:47:48;;;;;;;;;3.00;2.00;;;;;;;;2779168;51;8794;-59
2021/10/07 07:50:18;;;;;;;;;1.00;1.00;;;;;;;;2779291;51;8772;-60
2021/10/07 07:52:44;;;;;;;;;0.40;0.00;;;;;;;;2775834;51;8766;-60
2021/10/07 07:55:09;;;;;;;;;3.00;1.50;;;;;;;;2775636;51;8774;-58
2021/10/07 07:57:35;;;;;;;;;1.25;0.75;;;;;;;;2777264;51;9417;-58
2021/10/07 08:00:01;;;;;;;;;1.00;1.00;;;;;;;;2779171;51;8792;-59
2021/10/07 08:02:26;;;;;;;;;3.75;2.00;;;;;;;;2773538;51;8783;-60
2021/10/07 08:04:53;;;;;;;;;3.00;1.00;;;;;;;;2773084;51;8786;-59
2021/10/07 08:07:19;;;;;;;;;2.40;1.00;;;;;;;;2773141;51;8763;-59
2021/10/07 08:09:44;;;;;;;;;4.50;1.50;;;;;;;;2775524;51;8982;-60
2021/10/07 08:12:12;;;;;;;;;0.50;0.50;;;;;;;;2779197;51;8772;-59
2021/10/07 08:14:42;;;;;;;;;1.00;1.00;;;;;;;;2779220;51;8772;-58
2021/10/07 08:17:08;;;;;;;;;1.00;1.00;;;;;;;;2779075;51;8886;-60
2021/10/07 08:19:33;;;;;;;;;1.50;1.00;;;;;;;;2778972;51;8768;-58
2021/10/07 08:21:59;;;;;;;;;1.00;1.00;;;;;;;;2778881;51;9939;-62
2021/10/07 08:24:25;;;;;;;;;1.50;1.00;;;;;;;;2778859;51;8768;-59
2021/10/07 08:26:50;;;;;;;;;1.00;1.00;;;;;;;;2776419;51;8774;-60
2021/10/07 08:29:16;;;;;;;;;3.00;1.00;;;;;;;;2772890;51;8790;-61
2021/10/07 08:31:42;;;;;;;;;1.00;0.00;;;;;;;;2777261;51;9384;-60
2021/10/07 08:34:08;;;;;;;;;1.00;1.00;;;;;;;;2773118;51;8802;-59
2021/10/07 08:36:35;;;;;;;;;2.00;1.00;;;;;;;;2772816;51;8811;-59
2021/10/07 08:39:00;;;;;;;;;6.20;2.00;;;;;;;;2773067;51;8789;-59
2021/10/07 08:41:26;;;;;;;;;0.75;0.75;;;;;;;;2772902;51;8791;-60
2021/10/07 08:43:52;;;;;;;;;1.00;1.00;;;;;;;;2772776;51;8775;-59
2021/10/07 08:46:19;;;;;;;;;1.00;1.00;;;;;;;;2772943;51;8759;-58
2021/10/07 08:48:45;;;;;;;;;1.00;1.00;;;;;;;;2772714;51;8766;-58
2021/10/07 08:51:10;;;;;;;;;1.60;1.00;;;;;;;;2772426;51;9392;-59
2021/10/07 08:53:36;;;;;;;;;0.25;0.25;;;;;;;;2772897;51;8794;-60
2021/10/07 08:56:05;;;;;;;;;0.00;0.00;;;;;;;;2773480;51;8779;-59
2021/10/07 08:58:31;;;;;;;;;0.20;0.20;;;;;;;;2773605;51;11419;-60
2021/10/07 09:00:56;;;;;;;;;0.00;0.00;;;;;;;;2776301;51;8772;-62
2021/10/07 09:03:22;;;;;;;;;1.00;1.00;;;;;;;;2779798;51;8811;-61
2021/10/07 09:05:48;;;;;;;;;1.80;0.80;;;;;;;;2779840;51;8780;-61
2021/10/07 09:08:15;;;;;;;;;1.00;1.00;;;;;;;;2780103;51;8756;-61
2021/10/07 09:10:51;;;;;;;;;2.00;0.20;;;;;;;;2779751;51;8776;-59
2021/10/07 09:13:20;;;;;;;;;1.00;1.00;;;;;;;;2779981;51;8775;-61
2021/10/07 09:15:50;;;;;;;;;1.40;1.40;;;;;;;;2779756;51;8894;-60
2021/10/07 09:18:17;;;;;;;;;1.00;1.00;;;;;;;;2779893;51;8927;-59
2021/10/07 09:20:44;;;;;;;;;2.80;1.80;;;;;;;;2780023;51;8767;-61
2021/10/07 09:23:18;;;;;;;;;1.20;0.80;;;;;;;;2779829;51;8806;-60
2021/10/07 09:25:58;;;;;;;;;1.60;1.40;;;;;;;;2780144;51;9402;-59
2021/10/07 09:28:27;;;;;;;;;0.40;0.00;;;;;;;;2779868;51;8797;-62
2021/10/07 09:31:00;;;;;;;;;1.00;1.00;;;;;;;;2779862;51;8752;-59
2021/10/07 09:33:27;;;;;;;;;0.20;0.20;;;;;;;;2780373;51;8879;-59
2021/10/07 09:36:09;;;;;;;;;1.00;1.00;;;;;;;;2779794;51;8776;-59
2021/10/07 09:38:35;;;;;;;;;1.00;0.00;;;;;;;;2779785;51;8764;-58
2021/10/07 09:41:14;;;;;;;;;0.50;0.50;;;;;;;;2779650;51;8918;-58
2021/10/07 09:43:40;;;;;;;;;0.00;0.00;;;;;;;;2779772;51;8773;-60
2021/10/07 09:46:06;;;;;;;;;0.80;0.40;;;;;;;;2779548;51;8764;-57
2021/10/07 09:48:39;;;;;;;;;2.00;1.00;;;;;;;;2779391;51;8764;-59
2021/10/07 09:51:11;;;;;;;;;1.40;0.60;;;;;;;;2779607;51;8779;-59
2021/10/07 09:53:36;;;;;;;;;0.40;0.40;;;;;;;;2779863;51;8764;-59
2021/10/07 09:56:02;;;;;;;;;1.25;1.00;;;;;;;;2774880;51;8771;-59
2021/10/07 09:58:28;;;;;;;;;2.00;1.00;;;;;;;;2773722;51;8992;-60
2021/10/07 10:00:54;;;;;;;;;0.25;0.25;;;;;;;;2775833;51;8780;-59
2021/10/07 10:03:24;;;;;;;;;0.60;0.00;;;;;;;;2779713;51;8796;-59
2021/10/07 10:05:50;;;;;;;;;2.00;1.40;;;;;;;;2779431;51;8762;-58
2021/10/07 10:08:17;;;;;;;;;1.20;1.20;;;;;;;;2779407;51;8858;-60
2021/10/07 10:10:44;;;;;;;;;1.00;1.00;;;;;;;;2779551;51;8756;-59
2021/10/07 10:13:10;;;;;;;;;2.00;0.20;;;;;;;;2779545;51;8984;-57
2021/10/07 10:15:37;;;;;;;;;2.00;0.40;;;;;;;;2779401;51;9412;-58
2021/10/07 10:18:10;;;;;;;;;0.40;0.40;;;;;;;;2779669;51;8752;-59
2021/10/07 10:20:37;;;;;;;;;0.20;0.20;;;;;;;;2779547;51;8772;-61
2021/10/07 10:23:05;;;;;;;;;1.00;1.00;;;;;;;;2773611;51;8779;-59
2021/10/07 10:25:49;;;;;;;;;0.80;0.40;;;;;;;;2773421;51;8762;-58
2021/10/07 10:28:15;;;;;;;;;0.80;0.80;;;;;;;;2773394;51;8767;-57
2021/10/07 10:30:46;;;;;;;;;0.75;0.75;;;;;;;;2773412;51;8767;-63
2021/10/07 10:33:31;;;;;;;;;1.00;1.00;;;;;;;;2773220;51;8751;-58
2021/10/07 10:35:56;;;;;;;;;0.80;0.80;;;;;;;;2775565;51;8776;-57
2021/10/07 10:38:22;;;;;;;;;1.00;0.00;;;;;;;;2775725;51;8760;-58
2021/10/07 10:40:48;;;;;;;;;0.00;0.00;;;;;;;;2775811;51;12104;-60
2021/10/07 10:43:17;;;;;;;;;1.80;1.00;;;;;;;;2775569;51;8784;-58
2021/10/07 10:45:46;;;;;;;;;0.00;0.00;;;;;;;;2775199;51;8780;-60
2021/10/07 10:48:12;;;;;;;;;1.00;1.00;;;;;;;;2775717;51;8774;-59
2021/10/07 10:50:37;;;;;;;;;1.25;1.00;;;;;;;;2774979;51;8910;-59
2021/10/07 10:53:20;;;;;;;;;2.00;1.00;;;;;;;;2775596;51;8890;-58
2021/10/07 10:55:45;;;;;;;;;0.80;0.00;;;;;;;;2775463;51;8760;-60
2021/10/07 10:58:11;;;;;;;;;1.75;1.00;;;;;;;;2775485;51;8793;-60
2021/10/07 11:00:38;;;;;;;;;1.00;1.00;;;;;;;;2775325;51;8778;-59
2021/10/07 11:03:10;;;;;;;;;2.60;1.60;;;;;;;;2775358;51;8813;-57
2021/10/07 11:05:41;;;;;;;;;0.00;0.00;;;;;;;;2775749;51;8876;-60
2021/10/07 11:08:15;;;;;;;;;0.40;0.40;;;;;;;;2775436;51;9377;-59
2021/10/07 11:10:42;;;;;;;;;1.00;1.00;;;;;;;;2774873;51;8790;-60
2021/10/07 11:13:14;;;;;;;;;0.20;0.20;;;;;;;;2775265;51;8775;-60
2021/10/07 11:15:41;;;;;;;;;1.80;1.80;;;;;;;;2775103;51;8916;-59
2021/10/07 11:18:06;;;;;;;;;1.40;0.80;;;;;;;;2775152;51;9431;-58
2021/10/07 11:20:33;;;;;;;;;1.00;1.00;;;;;;;;2775021;51;8795;-61
2021/10/07 11:23:03;;;;;;;;;1.00;1.00;;;;;;;;2775108;51;8810;-63
2021/10/07 11:25:29;;;;;;;;;2.00;1.00;;;;;;;;2775081;51;8776;-60
2021/10/07 11:27:55;;;;;;;;;5.60;3.80;;;;;;;;2774903;51;8770;-60
2021/10/07 11:30:22;;;;;;;;;1.00;1.00;;;;;;;;2775146;51;8770;-60
2021/10/07 11:32:48;;;;;;;;;1.00;1.00;;;;;;;;2775160;51;8776;-60
2021/10/07 11:35:15;;;;;;;;;1.40;1.40;;;;;;;;2775076;51;8791;-60
2021/10/07 11:37:43;;;;;;;;;1.00;1.00;;;;;;;;2775418;51;8780;-60
2021/10/07 11:40:21;;;;;;;;;0.00;0.00;;;;;;;;2774900;51;8806;-60
2021/10/07 11:42:46;;;;;;;;;1.80;1.20;;;;;;;;2774793;51;8795;-60
2021/10/07 11:45:32;;;;;;;;;2.75;1.00;;;;;;;;2775171;51;8818;-60
2021/10/07 11:48:00;;;;;;;;;1.00;1.00;;;;;;;;2775018;51;8756;-59
2021/10/07 11:50:26;;;;;;;;;1.60;1.00;;;;;;;;2775018;51;8906;-61
2021/10/07 11:52:54;;;;;;;;;1.40;1.00;;;;;;;;2775183;51;8775;-62
2021/10/07 11:55:21;;;;;;;;;3.00;1.80;;;;;;;;2774499;51;8788;-62
2021/10/07 11:57:57;;;;;;;;;1.00;1.00;;;;;;;;2774928;51;8771;-61
2021/10/07 12:00:32;;;;;;;;;1.80;0.80;;;;;;;;2775099;51;8871;-60
2021/10/07 12:03:09;;;;;;;;;2.00;2.00;;;;;;;;2774863;51;8884;-60
2021/10/07 12:05:35;;;;;;;;;1.00;1.00;;;;;;;;2774954;51;8908;-61
2021/10/07 12:08:05;;;;;;;;;1.20;1.20;;;;;;;;2774843;51;8798;-60
2021/10/07 12:10:32;;;;;;;;;0.40;0.40;;;;;;;;2774586;51;8908;-60
2021/10/07 12:13:08;;;;;;;;;2.60;1.60;;;;;;;;2774889;51;8756;-60
2021/10/07 12:15:33;;;;;;;;;3.00;3.00;;;;;;;;2774915;51;8817;-61
2021/10/07 12:17:59;;;;;;;;;0.50;0.50;;;;;;;;2775010;51;8761;-61
2021/10/07 12:20:24;;;;;;;;;1.75;1.75;;;;;;;;2774737;51;8778;-62
2021/10/07 12:22:50;;;;;;;;;1.00;1.00;;;;;;;;2774961;51;8780;-60
2021/10/07 12:25:19;;;;;;;;;3.00;1.50;;;;;;;;2774866;51;8797;-60
2021/10/07 12:27:45;;;;;;;;;1.60;1.00;;;;;;;;2774869;51;9409;-62
2021/10/07 12:30:11;;;;;;;;;3.80;3.80;;;;;;;;2774886;51;8792;-62
2021/10/07 12:32:37;;;;;;;;;1.00;0.00;;;;;;;;2775550;51;8788;-60
2021/10/07 12:35:03;;;;;;;;;2.00;2.00;;;;;;;;2775606;51;8784;-60
2021/10/07 12:37:28;;;;;;;;;4.00;2.00;;;;;;;;2775364;51;8877;-61
2021/10/07 12:39:55;;;;;;;;;2.25;1.00;;;;;;;;2775896;51;8914;-61
2021/10/07 12:42:25;;;;;;;;;2.00;1.00;;;;;;;;2775417;51;8868;-64
2021/10/07 12:44:57;;;;;;;;;1.00;1.00;;;;;;;;2775668;51;9196;-61
2021/10/07 12:47:30;;;;;;;;;3.00;3.00;;;;;;;;2775780;51;8776;-63
2021/10/07 12:49:57;;;;;;;;;1.00;1.00;;;;;;;;2776061;51;8771;-61
2021/10/07 12:52:29;;;;;;;;;3.20;2.20;;;;;;;;2775420;51;8795;-61
2021/10/07 12:55:18;;;;;;;;;1.00;1.00;;;;;;;;2775782;51;8768;-61
2021/10/07 12:57:46;;;;;;;;;1.00;1.00;;;;;;;;2776104;51;8768;-61
2021/10/07 13:00:22;;;;;;;;;2.20;2.20;;;;;;;;2775676;51;8881;-62
2021/10/07 13:02:49;;;;;;;;;1.80;1.80;;;;;;;;2775447;51;8924;-61
2021/10/07 13:05:24;;;;;;;;;2.00;2.00;;;;;;;;2775943;51;8788;-62
2021/10/07 13:07:50;;;;;;;;;0.40;0.40;;;;;;;;2775866;51;8775;-60
2021/10/07 13:10:16;;;;;;;;;1.80;1.80;;;;;;;;2775465;51;8805;-62
2021/10/07 13:12:42;;;;;;;;;3.00;2.00;;;;;;;;2775447;51;8767;-60
2021/10/07 13:15:07;;;;;;;;;3.75;2.25;;;;;;;;2775714;51;8788;-62
2021/10/07 13:17:33;;;;;;;;;2.50;2.50;;;;;;;;2775501;51;8779;-61
2021/10/07 13:19:59;;;;;;;;;3.50;3.50;;;;;;;;2777645;51;8796;-60
2021/10/07 13:22:24;;;;;;;;;2.00;2.00;;;;;;;;2775559;51;8792;-61
2021/10/07 13:24:50;;;;;;;;;1.00;1.00;;;;;;;;2775927;51;8778;-61
2021/10/07 13:27:24;;;;;;;;;1.00;1.00;;;;;;;;2775544;51;8784;-65
2021/10/07 13:29:53;;;;;;;;;1.00;1.00;;;;;;;;2775848;51;8771;-61
2021/10/07 13:32:20;;;;;;;;;1.00;1.00;;;;;;;;2775504;51;8772;-61
2021/10/07 13:34:46;;;;;;;;;1.00;1.00;;;;;;;;2775726;51;8775;-62
2021/10/07 13:37:12;;;;;;;;;2.00;2.00;;;;;;;;2775463;51;8759;-61
2021/10/07 13:39:38;;;;;;;;;1.00;1.00;;;;;;;;2775458;51;8768;-63
2021/10/07 13:42:03;;;;;;;;;1.60;0.80;;;;;;;;2774977;51;11290;-62
2021/10/07 13:44:29;;;;;;;;;0.00;0.00;;;;;;;;2775489;51;8796;-62
2021/10/07 13:46:55;;;;;;;;;0.75;0.75;;;;;;;;2775648;51;8772;-63
2021/10/07 13:49:20;;;;;;;;;2.00;2.00;;;;;;;;2775039;51;8799;-62
2021/10/07 13:51:46;;;;;;;;;2.50;1.00;;;;;;;;2775307;51;8768;-63
2021/10/07 13:54:12;;;;;;;;;2.00;0.50;;;;;;;;2775515;51;9464;-61
2021/10/07 13:56:37;;;;;;;;;1.00;1.00;;;;;;;;2775190;51;8794;-62
2021/10/07 13:59:03;;;;;;;;;4.00;2.75;;;;;;;;2775402;51;8801;-61
2021/10/07 14:01:29;;;;;;;;;2.00;1.75;;;;;;;;2775400;51;8764;-63
2021/10/07 14:03:54;;;;;;;;;0.00;0.00;;;;;;;;2775463;51;8943;-62
2021/10/07 14:06:20;;;;;;;;;1.25;1.00;;;;;;;;2775053;51;8783;-61
2021/10/07 14:08:46;;;;;;;;;1.50;1.25;;;;;;;;2774782;51;8790;-65
2021/10/07 14:11:12;;;;;;;;;2.00;2.00;;;;;;;;2773995;51;9101;-66
2021/10/07 14:13:38;;;;;;;;;0.60;0.60;;;;;;;;2773886;51;9831;-61
2021/10/07 14:16:04;;;;;;;;;1.40;1.00;;;;;;;;2773597;51;8767;-65
2021/10/07 14:18:31;;;;;;;;;1.00;1.00;;;;;;;;2773229;51;8893;-62
2021/10/07 14:20:56;;;;;;;;;1.00;1.00;;;;;;;;2773461;51;9410;-63
2021/10/07 14:23:22;;;;;;;;;1.80;1.80;;;;;;;;2773378;51;8767;-61
2021/10/07 14:25:48;;;;;;;;;3.40;3.00;;;;;;;;2773298;51;8778;-63
2021/10/07 14:28:14;;;;;;;;;1.00;1.00;;;;;;;;2773426;51;8771;-62
2021/10/07 14:30:39;;;;;;;;;4.50;3.25;;;;;;;;2773217;51;8762;-61
2021/10/07 14:33:06;;;;;;;;;2.00;2.00;;;;;;;;2773329;51;8763;-71
2021/10/07 14:35:31;;;;;;;;;1.20;1.20;;;;;;;;2773317;51;8775;-68
2021/10/07 14:37:58;;;;;;;;;1.75;1.75;;;;;;;;2773619;51;8802;-68
2021/10/07 14:40:25;;;;;;;;;1.00;1.00;;;;;;;;2772788;51;9008;-63
2021/10/07 14:42:51;;;;;;;;;1.00;1.00;;;;;;;;2772788;51;8786;-62
2021/10/07 14:45:17;;;;;;;;;3.00;3.00;;;;;;;;2773005;51;9447;-64
2021/10/07 14:47:43;;;;;;;;;1.00;1.00;;;;;;;;2773075;51;8759;-64
2021/10/07 14:50:09;;;;;;;;;2.50;1.00;;;;;;;;2772851;51;8908;-65
2021/10/07 14:52:36;;;;;;;;;1.00;1.00;;;;;;;;2772887;51;8797;-66
2021/10/07 14:55:06;;;;;;;;;1.60;1.60;;;;;;;;2772916;51;8775;-68
2021/10/07 14:57:32;;;;;;;;;3.20;1.80;;;;;;;;2772927;51;8782;-67